Time;durP1;ratioP1;P1;durP2;ratioP2;P2;SDS_P1;SDS_P2;PMS_P1;PMS_P2;Temp;Humidity;BMP_temperature;BMP_pressure;BME280_temperature;BME280_humidity;BME280_pressure;Samples;Min_cycle;Max_cycle;Signal;HPM_P1;HPM_P2
2022/07/10 00:00:26;;;;;;;8.20;1.52;;;13.80;99.90;;;;;;5088769;28;20059;-66
2022/07/10 00:02:52;;;;;;;7.95;1.65;;;13.80;99.90;;;;;;5089675;28;20039;-66
2022/07/10 00:05:18;;;;;;;7.88;1.88;;;13.80;99.90;;;;;;5089668;28;20780;-67
2022/07/10 00:07:44;;;;;;;7.63;1.65;;;13.80;99.90;;;;;;5089291;28;20035;-66
2022/07/10 00:10:10;;;;;;;8.50;1.30;;;13.80;99.90;;;;;;5090747;28;20090;-66
2022/07/10 00:12:37;;;;;;;6.13;1.48;;;13.80;99.90;;;;;;5089472;28;20395;-67
2022/07/10 00:15:07;;;;;;;4.97;0.95;;;13.80;99.90;;;;;;5087703;28;20063;-66
2022/07/10 00:17:33;;;;;;;10.75;2.55;;;13.80;99.90;;;;;;5091241;28;20078;-66
2022/07/10 00:19:59;;;;;;;6.75;1.02;;;13.80;99.90;;;;;;5089962;28;20079;-65
2022/07/10 00:22:25;;;;;;;3.67;1.05;;;13.80;99.90;;;;;;5088012;28;20090;-67
2022/07/10 00:24:50;;;;;;;4.35;1.10;;;13.80;99.90;;;;;;5071943;28;20044;-66
2022/07/10 00:27:17;;;;;;;4.22;1.13;;;13.80;99.90;;;;;;5123389;28;20101;-67
2022/07/10 00:29:43;;;;;;;4.78;1.00;;;13.80;99.90;;;;;;5088850;28;20056;-67
2022/07/10 00:32:09;;;;;;;4.40;1.42;;;13.80;99.90;;;;;;5089209;28;20048;-67
2022/07/10 00:34:35;;;;;;;3.65;0.90;;;13.80;99.90;;;;;;5089444;28;20039;-66
2022/07/10 00:37:02;;;;;;;6.43;1.20;;;13.80;99.90;;;;;;5088143;28;20036;-66
2022/07/10 00:39:27;;;;;;;5.90;0.90;;;13.80;99.90;;;;;;5091421;28;20085;-67
2022/07/10 00:41:53;;;;;;;7.55;1.20;;;13.80;99.90;;;;;;5088988;28;20036;-66
2022/07/10 00:44:19;;;;;;;9.57;1.50;;;13.80;99.90;;;;;;5088982;28;20043;-67
2022/07/10 00:46:45;;;;;;;6.55;1.38;;;13.80;99.90;;;;;;5091919;28;20127;-66
2022/07/10 00:49:10;;;;;;;6.10;1.23;;;13.70;99.90;;;;;;5093070;28;20101;-67
2022/07/10 00:51:37;;;;;;;9.93;2.03;;;13.70;99.90;;;;;;5092452;28;20078;-67
2022/07/10 00:54:03;;;;;;;6.55;1.50;;;13.70;99.90;;;;;;5094064;28;20039;-65
2022/07/10 00:56:29;;;;;;;8.00;1.20;;;13.60;99.90;;;;;;5092310;28;20043;-66
2022/07/10 00:58:54;;;;;;;4.75;1.27;;;13.60;99.90;;;;;;5091889;28;20066;-66
2022/07/10 01:01:24;;;;;;;7.40;1.38;;;13.60;99.90;;;;;;5091114;28;20423;-67
2022/07/10 01:03:50;;;;;;;6.40;1.20;;;13.50;99.90;;;;;;5075342;28;20035;-66
2022/07/10 01:06:16;;;;;;;9.02;1.20;;;13.60;99.90;;;;;;5077767;28;20510;-67
2022/07/10 01:08:43;;;;;;;6.45;1.30;;;13.50;99.90;;;;;;5092672;28;20035;-65
2022/07/10 01:11:09;;;;;;;7.38;1.30;;;13.50;99.90;;;;;;5090690;28;20521;-67
2022/07/10 01:13:36;;;;;;;6.55;1.50;;;13.40;99.90;;;;;;5093135;28;20071;-67
2022/07/10 01:16:02;;;;;;;6.90;1.40;;;13.40;99.90;;;;;;5092131;28;20040;-66
2022/07/10 01:18:28;;;;;;;6.72;1.52;;;13.40;99.90;;;;;;5095111;28;20418;-67
2022/07/10 01:20:55;;;;;;;5.15;1.27;;;13.30;99.90;;;;;;5092112;28;20043;-66
2022/07/10 01:23:21;;;;;;;5.10;1.10;;;13.30;99.90;;;;;;5092082;28;20039;-67
2022/07/10 01:25:50;;;;;;;4.28;1.00;;;13.30;99.90;;;;;;5092431;28;20062;-66
2022/07/10 01:28:17;;;;;;;2.97;1.25;;;13.20;99.90;;;;;;5076524;28;20089;-66
2022/07/10 01:30:43;;;;;;;7.00;1.10;;;13.20;99.90;;;;;;5094079;28;20052;-67
2022/07/10 01:33:08;;;;;;;8.88;2.72;;;13.20;99.90;;;;;;5092308;28;20066;-66
2022/07/10 01:35:34;;;;;;;8.38;1.70;;;13.10;99.90;;;;;;5094199;28;20043;-67
2022/07/10 01:37:59;;;;;;;8.27;1.40;;;13.10;99.90;;;;;;5093269;28;20421;-66
2022/07/10 01:40:25;;;;;;;6.93;1.30;;;13.00;99.90;;;;;;5094641;28;20131;-66
2022/07/10 01:42:51;;;;;;;5.50;1.10;;;13.00;99.90;;;;;;5090531;28;20077;-66
2022/07/10 01:45:17;;;;;;;7.63;1.30;;;13.00;99.90;;;;;;5092134;28;20028;-65
2022/07/10 01:47:43;;;;;;;7.30;1.20;;;12.90;99.90;;;;;;5126364;27;20048;-66
2022/07/10 01:50:09;;;;;;;8.98;1.77;;;12.90;99.90;;;;;;5090928;28;20043;-66
2022/07/10 01:52:35;;;;;;;5.88;1.55;;;12.90;99.90;;;;;;5092000;28;20032;-66
2022/07/10 01:55:02;;;;;;;5.95;1.10;;;12.90;99.90;;;;;;5091805;28;20043;-66
2022/07/10 01:57:28;;;;;;;6.72;1.25;;;12.90;99.90;;;;;;5092253;28;20509;-67
2022/07/10 01:59:53;;;;;;;3.63;1.10;;;12.80;99.90;;;;;;5090353;28;20045;-66
2022/07/10 02:02:19;;;;;;;5.32;1.20;;;12.80;99.90;;;;;;5120201;27;20032;-66
2022/07/10 02:04:45;;;;;;;8.05;1.55;;;12.80;99.90;;;;;;5124480;27;20039;-65
2022/07/10 02:07:12;;;;;;;5.25;1.10;;;12.80;99.90;;;;;;5090475;28;20127;-66
2022/07/10 02:09:39;;;;;;;6.13;1.05;;;12.70;99.90;;;;;;5091339;28;20308;-66
2022/07/10 02:12:08;;;;;;;4.93;1.52;;;12.80;99.90;;;;;;5092701;28;20047;-66
2022/07/10 02:14:34;;;;;;;8.52;1.40;;;12.70;99.90;;;;;;5091245;28;20490;-67
2022/07/10 02:17:00;;;;;;;6.75;1.30;;;12.80;99.90;;;;;;5121295;27;20040;-65
2022/07/10 02:19:26;;;;;;;8.68;1.70;;;12.70;99.90;;;;;;5091404;28;20503;-66
2022/07/10 02:21:52;;;;;;;7.03;1.10;;;12.70;99.90;;;;;;5090307;28;20039;-65
2022/07/10 02:24:18;;;;;;;5.88;1.67;;;12.70;99.90;;;;;;5090906;28;20036;-67
2022/07/10 02:26:44;;;;;;;6.53;1.50;;;12.70;99.90;;;;;;5091195;28;20121;-66
2022/07/10 02:29:09;;;;;;;5.97;1.20;;;12.70;99.90;;;;;;5090756;28;20150;-67
2022/07/10 02:31:40;;;;;;;7.85;1.80;;;12.70;99.90;;;;;;5090810;28;20044;-66
2022/07/10 02:34:06;;;;;;;8.20;1.20;;;12.70;99.90;;;;;;5091054;28;20156;-65
2022/07/10 02:36:32;;;;;;;6.35;1.17;;;12.70;99.90;;;;;;5091357;28;20417;-67
2022/07/10 02:38:58;;;;;;;6.70;0.90;;;12.70;99.90;;;;;;5094067;28;20040;-66
2022/07/10 02:41:24;;;;;;;6.93;1.08;;;12.70;99.90;;;;;;5073736;28;20032;-66
2022/07/10 02:43:49;;;;;;;7.07;1.50;;;12.70;99.90;;;;;;5090162;28;20032;-66
2022/07/10 02:46:15;;;;;;;4.25;1.23;;;12.70;99.90;;;;;;5090320;28;20048;-67
2022/07/10 02:48:41;;;;;;;8.50;1.30;;;12.60;99.90;;;;;;5089298;28;20501;-66
2022/07/10 02:51:06;;;;;;;4.65;1.10;;;12.60;99.90;;;;;;5090336;28;20089;-66
2022/07/10 02:53:32;;;;;;;7.53;1.00;;;12.60;99.90;;;;;;5092076;28;20032;-66
2022/07/10 02:55:58;;;;;;;6.47;1.17;;;12.60;99.90;;;;;;5091851;28;20036;-66
2022/07/10 02:58:23;;;;;;;7.05;1.30;;;12.60;99.90;;;;;;5084379;28;20070;-67
2022/07/10 03:00:49;;;;;;;4.32;0.77;;;12.60;99.90;;;;;;5089740;28;20047;-66
2022/07/10 03:03:17;;;;;;;6.07;1.08;;;12.60;99.90;;;;;;5086097;28;20055;-66
2022/07/10 03:05:44;;;;;;;3.78;1.00;;;12.60;99.90;;;;;;5092757;28;20490;-67
2022/07/10 03:08:10;;;;;;;6.93;1.13;;;12.60;99.90;;;;;;5089609;28;20134;-66
2022/07/10 03:10:35;;;;;;;3.47;1.00;;;12.50;99.90;;;;;;5121365;27;20131;-67
2022/07/10 03:13:01;;;;;;;6.68;1.20;;;12.50;99.90;;;;;;5089960;28;20040;-66
2022/07/10 03:15:27;;;;;;;5.00;1.13;;;12.50;99.90;;;;;;5073439;28;20105;-66
2022/07/10 03:17:52;;;;;;;4.60;1.30;;;12.50;99.90;;;;;;5088064;28;20040;-66
2022/07/10 03:20:18;;;;;;;7.28;1.42;;;12.50;99.90;;;;;;5089975;28;20032;-66
2022/07/10 03:22:44;;;;;;;7.80;1.27;;;12.50;99.90;;;;;;5090232;28;20513;-66
2022/07/10 03:25:09;;;;;;;6.28;1.05;;;12.50;99.90;;;;;;5089896;28;20073;-66
2022/07/10 03:27:35;;;;;;;4.88;0.98;;;12.50;99.90;;;;;;5089238;28;20371;-66
2022/07/10 03:30:01;;;;;;;4.80;1.17;;;12.50;99.90;;;;;;5088839;28;20523;-67
2022/07/10 03:32:26;;;;;;;11.45;1.60;;;12.50;99.90;;;;;;5072309;28;20051;-67
2022/07/10 03:34:52;;;;;;;5.97;1.00;;;12.50;99.90;;;;;;5090534;28;20051;-67
2022/07/10 03:37:18;;;;;;;5.40;1.20;;;12.50;99.90;;;;;;5092033;28;20039;-67
2022/07/10 03:39:43;;;;;;;2.78;1.10;;;12.60;99.90;;;;;;5089330;28;20040;-66
2022/07/10 03:42:09;;;;;;;9.25;1.20;;;12.60;99.90;;;;;;5089191;28;20377;-66
2022/07/10 03:44:35;;;;;;;5.57;1.02;;;12.60;99.90;;;;;;5089356;28;20097;-67
2022/07/10 03:47:01;;;;;;;6.55;1.00;;;12.70;99.90;;;;;;5090639;28;20107;-66
2022/07/10 03:49:26;;;;;;;4.63;1.02;;;12.70;99.90;;;;;;5090670;28;20109;-67
2022/07/10 03:51:52;;;;;;;7.22;1.13;;;12.70;99.90;;;;;;5090814;28;20042;-66
2022/07/10 03:54:18;;;;;;;3.85;1.20;;;12.70;99.90;;;;;;5091506;28;20407;-67
2022/07/10 03:59:28;;;;;;;8.20;1.00;;;12.80;99.90;;;;;;5090817;28;20032;-66
2022/07/10 04:01:53;;;;;;;10.05;1.13;;;12.80;99.90;;;;;;5087316;28;20395;-67
2022/07/10 04:04:19;;;;;;;6.10;1.20;;;12.90;99.90;;;;;;5121475;27;20118;-66
2022/07/10 04:06:44;;;;;;;7.50;1.17;;;12.90;99.90;;;;;;5087833;28;20413;-66
2022/07/10 04:09:10;;;;;;;11.00;1.35;;;13.00;99.90;;;;;;5074086;28;20051;-67
2022/07/10 04:11:36;;;;;;;8.32;1.58;;;13.00;99.90;;;;;;5091756;28;20118;-65
2022/07/10 04:14:01;;;;;;;7.72;0.93;;;13.00;99.90;;;;;;5089020;28;20058;-67
2022/07/10 04:16:27;;;;;;;7.53;1.08;;;13.10;99.90;;;;;;5123339;27;20421;-66
2022/07/10 04:18:53;;;;;;;6.30;1.08;;;13.20;99.90;;;;;;5086477;28;20046;-65
2022/07/10 04:21:19;;;;;;;5.65;1.00;;;13.20;99.90;;;;;;5122900;27;20039;-66
2022/07/10 04:23:45;;;;;;;4.50;0.98;;;13.30;99.90;;;;;;5088976;28;20429;-66
2022/07/10 04:26:10;;;;;;;5.90;1.35;;;13.30;99.90;;;;;;5089983;28;20044;-66
2022/07/10 04:28:36;;;;;;;5.43;1.27;;;13.40;99.90;;;;;;5088259;28;20165;-67
2022/07/10 04:31:01;;;;;;;8.95;1.30;;;13.50;99.90;;;;;;5088775;28;20052;-66
2022/07/10 04:33:27;;;;;;;5.32;1.30;;;13.50;99.90;;;;;;5120314;28;20060;-67
2022/07/10 04:35:53;;;;;;;3.83;0.80;;;13.50;99.90;;;;;;5091585;28;20065;-66
2022/07/10 04:38:18;;;;;;;9.45;1.10;;;13.50;99.90;;;;;;5088953;28;20032;-66
2022/07/10 04:40:44;;;;;;;5.85;1.10;;;13.50;99.90;;;;;;5087611;28;20058;-66
2022/07/10 04:43:12;;;;;;;4.93;1.33;;;13.60;99.90;;;;;;5090034;28;20039;-66
2022/07/10 04:45:38;;;;;;;5.28;1.38;;;13.60;99.90;;;;;;5086358;28;20032;-65
2022/07/10 04:48:05;;;;;;;8.15;1.30;;;13.60;99.90;;;;;;5090646;28;20127;-66
2022/07/10 04:50:30;;;;;;;7.28;1.00;;;13.60;99.90;;;;;;5085732;28;20039;-66
2022/07/10 04:52:57;;;;;;;7.25;1.15;;;13.60;99.90;;;;;;5085886;28;20044;-67
2022/07/10 04:55:23;;;;;;;5.15;1.02;;;13.70;99.90;;;;;;5089586;28;20040;-66
2022/07/10 04:57:49;;;;;;;8.55;0.90;;;13.70;99.90;;;;;;5088763;28;20050;-66
2022/07/10 05:00:15;;;;;;;6.65;1.15;;;13.80;99.90;;;;;;5118344;27;20678;-67
2022/07/10 05:02:41;;;;;;;7.47;1.30;;;13.80;99.90;;;;;;5070427;28;20043;-65
2022/07/10 05:05:08;;;;;;;6.15;1.17;;;13.90;99.90;;;;;;5071787;28;20126;-67
2022/07/10 05:07:34;;;;;;;8.18;1.40;;;13.90;99.90;;;;;;5089872;28;20035;-67
2022/07/10 05:09:59;;;;;;;8.60;1.33;;;14.00;99.90;;;;;;5088331;28;20039;-66
2022/07/10 05:12:25;;;;;;;5.82;1.20;;;14.00;99.90;;;;;;5087144;28;20370;-66
2022/07/10 05:14:51;;;;;;;7.68;1.40;;;14.00;99.90;;;;;;5089716;28;20035;-65
2022/07/10 05:17:16;;;;;;;5.75;1.80;;;14.10;99.90;;;;;;5088425;28;20043;-66
2022/07/10 05:19:42;;;;;;;7.53;1.15;;;14.10;99.90;;;;;;5088635;28;20059;-66
2022/07/10 05:22:09;;;;;;;9.20;1.30;;;14.10;99.90;;;;;;5092409;28;20055;-66
2022/07/10 05:24:35;;;;;;;6.70;1.30;;;14.20;99.90;;;;;;5086922;28;20056;-67
2022/07/10 05:27:00;;;;;;;7.68;1.63;;;14.20;99.90;;;;;;5092001;28;20457;-68
2022/07/10 05:29:26;;;;;;;5.47;1.15;;;14.20;99.90;;;;;;5088140;28;20032;-67
2022/07/10 05:31:52;;;;;;;5.68;1.50;;;14.20;99.90;;;;;;5087749;28;20044;-65
2022/07/10 05:34:17;;;;;;;5.82;1.83;;;14.30;99.90;;;;;;5122957;27;20046;-65
2022/07/10 05:36:43;;;;;;;7.03;1.38;;;14.30;99.90;;;;;;5092306;28;20387;-67
2022/07/10 05:39:09;;;;;;;8.60;1.40;;;14.30;99.90;;;;;;5079136;28;20426;-66
2022/07/10 05:41:36;;;;;;;6.72;1.70;;;14.30;99.90;;;;;;5090375;28;20044;-66
2022/07/10 05:44:02;;;;;;;7.50;1.35;;;14.20;99.90;;;;;;5091301;28;20115;-64
2022/07/10 05:46:28;;;;;;;6.65;1.23;;;14.20;99.90;;;;;;5092902;28;20124;-65
2022/07/10 05:48:53;;;;;;;5.05;1.40;;;14.30;99.90;;;;;;5092009;28;20081;-66
2022/07/10 05:51:19;;;;;;;5.47;1.13;;;14.30;99.90;;;;;;5089957;28;20518;-65
2022/07/10 05:53:45;;;;;;;7.88;1.98;;;14.40;99.90;;;;;;5091649;28;20047;-67
2022/07/10 05:56:10;;;;;;;8.52;1.30;;;14.40;99.90;;;;;;5091666;28;20047;-65
2022/07/10 05:58:36;;;;;;;5.78;1.30;;;14.50;99.90;;;;;;5090459;28;20038;-66
2022/07/10 06:01:02;;;;;;;7.72;1.20;;;14.50;99.90;;;;;;5090583;28;20048;-66
2022/07/10 06:03:28;;;;;;;4.90;1.35;;;14.50;99.90;;;;;;5091411;28;20483;-66
2022/07/10 06:05:54;;;;;;;3.92;1.10;;;14.60;99.90;;;;;;5091658;28;20040;-66
2022/07/10 06:08:20;;;;;;;7.22;1.30;;;14.60;99.90;;;;;;5091421;28;20059;-65
2022/07/10 06:10:45;;;;;;;7.45;1.73;;;14.60;99.90;;;;;;5088866;28;20070;-66
2022/07/10 06:13:12;;;;;;;6.97;1.25;;;14.70;99.90;;;;;;5125081;27;20464;-66
2022/07/10 06:15:38;;;;;;;9.02;1.60;;;14.70;99.90;;;;;;5090027;28;20047;-64
2022/07/10 06:18:04;;;;;;;7.95;1.98;;;14.70;99.90;;;;;;5118133;27;20032;-66
2022/07/10 06:20:30;;;;;;;4.75;1.30;;;14.70;99.90;;;;;;5090005;28;20104;-66
2022/07/10 06:22:56;;;;;;;8.95;1.40;;;14.70;99.90;;;;;;5121030;27;20040;-65
2022/07/10 06:25:22;;;;;;;6.43;1.60;;;14.70;99.90;;;;;;5090159;28;20062;-66
2022/07/10 06:27:48;;;;;;;8.75;1.75;;;14.70;99.90;;;;;;5089216;28;20040;-66
2022/07/10 06:30:14;;;;;;;7.55;1.73;;;14.70;99.90;;;;;;5085575;28;20113;-65
2022/07/10 06:32:41;;;;;;;8.13;1.75;;;14.70;99.90;;;;;;5089547;28;20485;-66
2022/07/10 06:35:07;;;;;;;5.85;1.55;;;14.70;99.90;;;;;;5068693;28;20066;-65
2022/07/10 06:37:34;;;;;;;3.10;1.35;;;14.70;99.90;;;;;;5102224;28;20079;-66
2022/07/10 06:39:59;;;;;;;5.47;1.00;;;14.70;99.90;;;;;;5091549;28;20049;-65
2022/07/10 06:42:25;;;;;;;9.02;1.33;;;14.80;99.90;;;;;;5089086;28;20188;-66
2022/07/10 06:44:51;;;;;;;7.63;1.70;;;14.80;99.90;;;;;;5087834;28;20074;-66
2022/07/10 06:50:07;;;;;;;7.72;1.52;;;14.80;99.90;;;;;;5090389;28;20505;-65
2022/07/10 06:52:33;;;;;;;5.78;1.30;;;14.70;99.90;;;;;;5090362;28;20051;-66
2022/07/10 06:55:00;;;;;;;7.15;1.70;;;14.80;99.90;;;;;;5091522;28;20048;-66
2022/07/10 06:57:25;;;;;;;7.85;2.28;;;14.80;99.90;;;;;;5091494;28;20115;-65
2022/07/10 06:59:52;;;;;;;7.05;1.27;;;14.90;99.90;;;;;;5124168;27;20115;-65
2022/07/10 07:02:18;;;;;;;7.63;1.85;;;14.90;99.90;;;;;;5091378;28;20036;-65
2022/07/10 07:04:45;;;;;;;4.07;1.17;;;15.00;99.90;;;;;;5084950;28;20082;-66
2022/07/10 07:07:11;;;;;;;3.92;1.05;;;15.00;99.90;;;;;;5089473;28;20052;-66
2022/07/10 07:09:38;;;;;;;6.88;1.35;;;15.10;99.90;;;;;;5094827;28;20027;-66
2022/07/10 07:12:04;;;;;;;4.30;1.20;;;15.10;99.90;;;;;;5073155;28;20036;-66
2022/07/10 07:14:30;;;;;;;6.90;1.70;;;15.10;99.90;;;;;;5090218;28;20087;-67
2022/07/10 07:17:14;;;;;;;6.10;1.25;;;15.10;99.90;;;;;;5090342;28;20071;-65
2022/07/10 07:25:10;;;;;;;4.32;1.30;;;15.30;99.90;;;;;;5089647;28;20131;-65
2022/07/10 07:27:38;;;;;;;4.90;1.17;;;15.30;99.90;;;;;;5089951;28;20530;-66
2022/07/10 07:30:14;;;;;;;5.68;1.40;;;15.30;99.90;;;;;;5089376;28;20070;-66
2022/07/10 07:32:41;;;;;;;5.05;1.38;;;15.30;99.90;;;;;;5087850;28;20055;-66
2022/07/10 07:35:07;;;;;;;5.15;1.02;;;15.30;99.90;;;;;;5089455;28;20071;-65
2022/07/10 07:37:37;;;;;;;6.30;1.15;;;15.30;99.90;;;;;;5090802;28;20040;-66
2022/07/10 07:40:08;;;;;;;4.43;1.20;;;15.30;99.90;;;;;;5089371;28;20078;-65
2022/07/10 07:42:34;;;;;;;4.28;1.20;;;15.30;99.90;;;;;;5086984;28;20079;-66
2022/07/10 07:45:00;;;;;;;4.75;1.20;;;15.40;99.90;;;;;;5090507;28;20512;-66
2022/07/10 07:47:26;;;;;;;3.63;1.13;;;15.30;99.90;;;;;;5089433;28;20040;-65
2022/07/10 07:49:51;;;;;;;5.93;1.08;;;15.40;99.90;;;;;;5089149;28;20040;-66
2022/07/10 07:52:17;;;;;;;4.50;1.30;;;15.40;99.90;;;;;;5090421;28;20036;-67
2022/07/10 07:54:43;;;;;;;4.25;1.05;;;15.40;99.90;;;;;;5090371;28;20099;-66
2022/07/10 07:57:08;;;;;;;4.78;0.98;;;15.40;99.90;;;;;;5088706;28;20036;-65
2022/07/10 07:59:34;;;;;;;5.40;1.30;;;15.40;99.90;;;;;;5090567;28;20082;-66
2022/07/10 08:02:00;;;;;;;4.80;1.20;;;15.30;99.90;;;;;;5089349;28;20482;-66
2022/07/10 08:04:26;;;;;;;7.05;1.55;;;15.30;99.90;;;;;;5089402;28;20036;-65
2022/07/10 08:06:53;;;;;;;5.05;1.70;;;15.30;99.90;;;;;;5087059;28;20087;-65
2022/07/10 08:09:19;;;;;;;7.45;1.52;;;15.20;99.90;;;;;;5090900;28;20069;-65
2022/07/10 08:11:46;;;;;;;4.00;1.02;;;15.10;99.90;;;;;;5088612;28;20044;-65
2022/07/10 08:14:12;;;;;;;2.60;0.95;;;15.10;99.90;;;;;;5088730;28;20063;-66
2022/07/10 08:16:38;;;;;;;2.17;0.85;;;15.00;99.90;;;;;;5088780;28;20036;-65
2022/07/10 08:19:03;;;;;;;1.20;0.50;;;15.00;99.90;;;;;;5089665;28;20429;-65
2022/07/10 08:21:30;;;;;;;2.30;0.90;;;15.10;99.90;;;;;;5088425;28;20052;-65
2022/07/10 08:23:55;;;;;;;1.60;0.60;;;15.10;99.90;;;;;;5085271;28;20048;-65
2022/07/10 08:26:21;;;;;;;1.50;0.68;;;15.20;99.90;;;;;;5071143;28;20158;-65
2022/07/10 08:28:47;;;;;;;2.47;0.70;;;15.10;99.90;;;;;;5088387;28;20185;-66
2022/07/10 08:31:13;;;;;;;1.00;0.60;;;15.10;99.90;;;;;;5122720;28;20051;-65
2022/07/10 08:33:38;;;;;;;2.78;0.68;;;15.10;99.90;;;;;;5089527;28;20079;-64
2022/07/10 08:36:04;;;;;;;2.13;0.70;;;15.20;99.90;;;;;;5088871;28;20044;-64
2022/07/10 08:38:30;;;;;;;2.33;0.70;;;15.20;99.90;;;;;;5087958;28;20043;-66
2022/07/10 08:40:57;;;;;;;5.15;1.30;;;15.20;99.90;;;;;;5088549;28;20055;-66
2022/07/10 08:43:25;;;;;;;5.38;1.00;;;15.20;99.90;;;;;;5087971;28;20032;-65
2022/07/10 08:45:53;;;;;;;1.80;0.77;;;15.20;99.90;;;;;;5087890;28;20059;-64
2022/07/10 08:48:23;;;;;;;2.38;0.88;;;15.20;99.90;;;;;;5090128;28;20550;-66
2022/07/10 08:50:52;;;;;;;2.42;1.00;;;15.20;99.90;;;;;;5085787;28;20036;-66
2022/07/10 08:53:29;;;;;;;3.15;0.90;;;15.30;99.90;;;;;;5090168;28;20539;-65
2022/07/10 08:55:55;;;;;;;3.50;1.10;;;15.30;99.90;;;;;;5082367;28;20126;-64
2022/07/10 08:58:22;;;;;;;3.63;1.20;;;15.30;99.90;;;;;;5091389;28;20143;-65
2022/07/10 09:00:48;;;;;;;3.85;0.80;;;15.30;99.90;;;;;;5087830;28;20040;-66
2022/07/10 09:03:14;;;;;;;3.08;1.00;;;15.30;99.90;;;;;;5088571;28;20036;-65
2022/07/10 09:05:40;;;;;;;1.52;0.60;;;15.30;99.90;;;;;;5089693;28;20111;-66
2022/07/10 09:08:33;;;;;;;2.15;0.70;;;15.30;99.90;;;;;;5088623;28;20044;-65
2022/07/10 09:11:14;;;;;;;;;;;15.30;99.90;;;;;;5093418;28;20035;-65
2022/07/10 09:14:16;;;;;;;2.28;0.68;;;15.30;99.90;;;;;;5092468;28;20374;-65
2022/07/10 09:16:45;;;;;;;4.97;1.17;;;15.30;99.90;;;;;;5050895;28;20044;-66
2022/07/10 09:19:21;;;;;;;4.18;1.15;;;15.40;99.90;;;;;;5051493;28;20585;-65
2022/07/10 09:21:49;;;;;;;3.15;0.82;;;15.60;99.90;;;;;;5032609;28;20063;-66
2022/07/10 09:24:19;;;;;;;2.90;0.80;;;15.70;99.90;;;;;;5034135;28;20128;-65
2022/07/10 09:26:59;;;;;;;2.53;1.00;;;15.90;99.90;;;;;;5048268;28;20131;-64
2022/07/10 09:29:25;;;;;;;4.15;0.88;;;16.10;99.90;;;;;;5034006;28;20412;-65
2022/07/10 09:31:56;;;;;;;2.38;0.80;;;16.20;99.90;;;;;;5050024;28;20041;-67
2022/07/10 09:34:36;;;;;;;2.53;1.00;;;16.40;99.90;;;;;;5049729;28;20533;-66
2022/07/10 09:37:23;;;;;;;4.60;0.90;;;16.60;99.90;;;;;;5033965;28;20076;-65
2022/07/10 09:39:59;;;;;;;3.25;0.90;;;16.70;99.90;;;;;;5034098;28;20511;-65
2022/07/10 09:42:28;;;;;;;4.57;1.50;;;16.80;99.90;;;;;;5016748;28;20049;-65
2022/07/10 09:45:13;;;;;;;2.97;0.90;;;16.80;99.90;;;;;;5032294;28;20078;-64
2022/07/10 09:47:40;;;;;;;3.38;0.80;;;16.70;99.90;;;;;;5065862;28;20080;-64
2022/07/10 09:50:25;;;;;;;2.47;0.90;;;16.70;99.90;;;;;;5033516;28;20493;-66
2022/07/10 09:52:53;;;;;;;2.97;1.10;;;16.60;99.90;;;;;;5076103;28;20044;-66
2022/07/10 09:55:24;;;;;;;5.07;1.02;;;16.50;99.90;;;;;;5089720;28;20123;-65
2022/07/10 09:57:58;;;;;;;3.87;1.00;;;16.40;99.90;;;;;;5091562;28;20072;-66
2022/07/10 10:00:29;;;;;;;5.40;1.20;;;16.30;99.90;;;;;;5090431;28;20036;-66
2022/07/10 10:02:56;;;;;;;5.55;1.15;;;16.30;99.90;;;;;;5089400;28;20077;-66
2022/07/10 10:05:31;;;;;;;5.78;1.02;;;16.30;99.90;;;;;;5091122;28;20624;-65
2022/07/10 10:08:01;;;;;;;5.65;1.38;;;16.40;99.90;;;;;;5090930;28;20042;-65
2022/07/10 10:10:27;;;;;;;4.22;1.20;;;16.50;99.90;;;;;;5124093;27;20032;-66
2022/07/10 10:12:58;;;;;;;3.30;1.10;;;16.70;99.90;;;;;;5087359;28;20429;-65
2022/07/10 10:15:26;;;;;;;5.90;1.02;;;16.90;99.90;;;;;;5089762;28;20044;-65
2022/07/10 10:17:52;;;;;;;3.35;1.20;;;17.00;99.90;;;;;;5122876;27;20042;-66
2022/07/10 10:20:41;;;;;;;3.22;0.90;;;17.10;99.90;;;;;;5089352;28;20152;-66
2022/07/10 10:23:12;;;;;;;2.65;0.77;;;17.20;99.90;;;;;;5073978;28;20052;-66
2022/07/10 10:25:38;;;;;;;3.97;1.00;;;17.20;99.90;;;;;;5091172;28;20036;-67
2022/07/10 10:28:07;;;;;;;5.78;1.27;;;17.10;99.90;;;;;;5071781;28;20464;-65
2022/07/10 10:30:38;;;;;;;4.30;1.08;;;17.00;99.90;;;;;;5091151;28;20044;-64
2022/07/10 10:33:03;;;;;;;3.90;1.17;;;16.90;99.90;;;;;;5091875;28;20032;-66
2022/07/10 10:35:46;;;;;;;2.60;0.90;;;16.80;99.90;;;;;;5090667;28;20408;-65
2022/07/10 10:38:15;;;;;;;7.10;1.35;;;16.70;99.90;;;;;;5091744;28;20390;-65
2022/07/10 10:40:41;;;;;;;4.63;1.20;;;16.80;99.90;;;;;;5121607;27;20124;-65
2022/07/10 10:43:21;;;;;;;5.20;1.33;;;17.00;99.90;;;;;;5090453;28;20066;-67
2022/07/10 10:45:47;;;;;;;6.13;1.33;;;17.30;99.90;;;;;;5090669;28;20123;-66
2022/07/10 10:48:15;;;;;;;5.10;1.10;;;17.60;99.90;;;;;;5090221;28;20072;-65
2022/07/10 10:50:52;;;;;;;5.88;1.42;;;18.00;99.90;;;;;;5091684;28;20089;-66
2022/07/10 10:53:28;;;;;;;3.35;1.30;;;18.30;99.90;;;;;;5090207;28;20510;-67
2022/07/10 10:56:14;;;;;;;8.55;1.20;;;18.30;99.90;;;;;;5090304;28;20066;-67
2022/07/10 10:58:42;;;;;;;5.00;1.30;;;18.40;99.90;;;;;;5079602;28;20051;-64
2022/07/10 11:01:20;;;;;;;2.90;1.17;;;18.20;99.90;;;;;;5089034;28;20040;-65
2022/07/10 11:04:04;;;;;;;2.25;0.90;;;18.10;99.90;;;;;;5088866;28;20047;-66
2022/07/10 11:06:50;;;;;;;4.45;1.50;;;17.90;99.90;;;;;;5089575;28;20036;-65
2022/07/10 11:09:31;;;;;;;4.82;1.20;;;17.90;99.90;;;;;;5092287;28;20085;-64
2022/07/10 11:12:01;;;;;;;4.43;1.45;;;17.70;99.90;;;;;;5088275;28;20073;-66
2022/07/10 11:14:28;;;;;;;7.22;1.50;;;17.40;99.90;;;;;;5092264;28;20070;-66
2022/07/10 11:16:57;;;;;;;5.63;1.77;;;17.30;99.90;;;;;;5091102;28;20431;-66
2022/07/10 11:19:31;;;;;;;5.28;1.65;;;17.10;99.90;;;;;;5089979;28;20036;-65
2022/07/10 11:22:42;;;;;;;3.22;1.33;;;17.10;99.90;;;;;;5089026;28;20075;-66
2022/07/10 11:25:42;;;;;;;5.55;1.73;;;17.40;99.90;;;;;;5100542;28;20154;-65
2022/07/10 11:28:09;;;;;;;3.42;1.05;;;17.90;99.90;;;;;;5123861;27;20043;-65
2022/07/10 11:30:52;;;;;;;4.55;1.17;;;18.20;99.90;;;;;;5089984;28;20068;-66
2022/07/10 11:33:20;;;;;;;3.58;1.15;;;18.30;99.90;;;;;;5089502;28;20403;-65
2022/07/10 11:35:53;;;;;;;4.78;1.10;;;18.20;99.90;;;;;;5089473;28;20055;-66
2022/07/10 11:38:23;;;;;;;2.80;1.02;;;18.20;99.90;;;;;;5089312;28;20039;-65
2022/07/10 11:40:49;;;;;;;4.50;1.05;;;18.10;99.90;;;;;;5088300;28;20120;-65
2022/07/10 11:43:17;;;;;;;3.28;0.90;;;17.90;99.90;;;;;;5089760;28;20036;-65
2022/07/10 11:45:43;;;;;;;2.22;0.82;;;17.80;99.90;;;;;;5090505;28;20040;-64
2022/07/10 11:48:21;;;;;;;2.13;0.93;;;17.70;99.90;;;;;;5087627;28;20418;-65
2022/07/10 11:50:47;;;;;;;2.38;0.90;;;17.50;99.90;;;;;;5090340;28;20335;-65
2022/07/10 11:53:13;;;;;;;1.70;0.77;;;17.40;99.90;;;;;;5089266;28;20040;-66
2022/07/10 11:55:40;;;;;;;2.88;0.95;;;17.40;99.90;;;;;;5088114;28;20070;-65
2022/07/10 11:58:13;;;;;;;5.05;1.65;;;17.40;99.90;;;;;;5088425;28;20044;-65
2022/07/10 12:00:39;;;;;;;3.78;1.00;;;17.40;99.90;;;;;;5067701;28;20036;-64
2022/07/10 12:03:19;;;;;;;4.53;1.27;;;17.50;99.90;;;;;;5088458;28;20043;-64
2022/07/10 12:05:46;;;;;;;2.17;1.00;;;17.50;99.90;;;;;;5087904;28;20047;-64
2022/07/10 12:08:13;;;;;;;3.47;1.02;;;17.60;99.90;;;;;;5072169;28;20063;-66
2022/07/10 12:10:41;;;;;;;3.15;1.00;;;17.60;99.90;;;;;;5086232;28;20052;-65
2022/07/10 12:13:09;;;;;;;4.53;1.35;;;17.60;99.90;;;;;;5089824;28;20059;-65
2022/07/10 12:15:40;;;;;;;3.95;1.10;;;17.50;99.90;;;;;;5087868;28;20058;-66
2022/07/10 12:18:07;;;;;;;2.92;1.20;;;17.60;99.90;;;;;;5092617;28;20050;-65
2022/07/10 12:20:34;;;;;;;5.40;1.40;;;17.60;99.90;;;;;;5090515;28;20036;-65
2022/07/10 12:23:00;;;;;;;6.57;1.50;;;17.60;99.90;;;;;;5087707;28;20112;-66
2022/07/10 12:25:26;;;;;;;4.38;1.40;;;17.70;99.90;;;;;;5088386;28;20044;-66
2022/07/10 12:27:57;;;;;;;3.85;1.27;;;17.80;99.90;;;;;;5122726;27;20048;-66
2022/07/10 12:30:23;;;;;;;4.47;1.17;;;17.90;99.90;;;;;;5087051;28;20059;-66
2022/07/10 12:32:48;;;;;;;5.15;1.20;;;17.90;99.90;;;;;;5086886;28;20044;-66
2022/07/10 12:35:15;;;;;;;4.78;1.33;;;17.90;99.90;;;;;;5088605;28;20058;-64
2022/07/10 12:37:50;;;;;;;3.58;1.05;;;17.90;99.90;;;;;;5083281;28;20036;-64
2022/07/10 12:40:32;;;;;;;2.33;1.00;;;17.90;99.90;;;;;;5089097;28;20040;-65
2022/07/10 12:43:06;;;;;;;5.20;1.10;;;18.00;99.90;;;;;;5088242;28;20040;-67
2022/07/10 12:45:32;;;;;;;4.45;1.10;;;18.00;99.90;;;;;;5092697;28;20040;-65
2022/07/10 12:47:58;;;;;;;5.03;1.10;;;18.00;99.90;;;;;;5092657;28;20051;-65
2022/07/10 12:50:25;;;;;;;2.20;1.00;;;18.00;99.90;;;;;;5093849;28;20093;-64
2022/07/10 12:53:11;;;;;;;4.18;1.00;;;18.00;99.90;;;;;;5090699;28;20043;-64
2022/07/10 12:55:38;;;;;;;4.05;0.93;;;18.00;99.90;;;;;;5089715;28;20055;-65
2022/07/10 12:58:09;;;;;;;4.10;1.10;;;17.90;99.90;;;;;;5092280;28;20047;-65
2022/07/10 13:00:42;;;;;;;4.82;1.00;;;17.90;99.90;;;;;;5093687;28;20592;-65
2022/07/10 13:03:10;;;;;;;4.68;0.93;;;17.90;99.90;;;;;;5093864;28;20050;-66